Terminal Aerodrome Forecast
Issued by NWS

Home | Current Version | Previous Version | Graphics & Text | Print | Product List | Glossary On
Versions: 1 2 3 4 5 6 7 8 9 10 11 12
000
FTUS43 KICT 081140
TAFRSL
TAF
KRSL 081140Z 0812/0912 25007KT P6SM OVC060
     FM081300 31013KT P6SM OVC060
     FM081700 34022G26KT P6SM OVC035
     FM082200 32013KT P6SM SCT035
     FM082330 32005KT P6SM SKC=

USA.gov is the U.S. government's official web portal to all federal, state and local government web resources and services.